createdAt,value
2022-07-30T00:00:33.901Z,1.15
2022-07-30T00:03:01.389Z,1.00
2022-07-30T00:05:28.831Z,1.20
2022-07-30T00:07:56.331Z,1.10
2022-07-30T00:10:23.791Z,1.10
2022-07-30T00:12:52.071Z,1.10
2022-07-30T00:15:19.515Z,1.15
2022-07-30T00:17:49.059Z,1.40
2022-07-30T00:20:16.950Z,1.10
2022-07-30T00:22:46.231Z,1.10
2022-07-30T00:25:13.699Z,1.20
2022-07-30T00:27:41.190Z,1.05
2022-07-30T00:30:08.892Z,1.20
2022-07-30T00:32:36.371Z,1.45
2022-07-30T00:35:04.058Z,1.23
2022-07-30T00:37:31.476Z,1.30
2022-07-30T00:39:58.912Z,1.30
2022-07-30T00:42:37.366Z,1.40
2022-07-30T00:45:05.218Z,1.20
2022-07-30T00:47:32.740Z,1.30
2022-07-30T00:50:00.140Z,1.40
2022-07-30T00:52:27.537Z,1.05
2022-07-30T00:54:54.916Z,1.27
2022-07-30T00:57:22.318Z,1.30
2022-07-30T00:59:50.496Z,1.20
2022-07-30T01:02:18.039Z,1.25
2022-07-30T01:04:45.684Z,1.27
2022-07-30T01:07:15.298Z,1.30
2022-07-30T01:09:42.681Z,1.20
2022-07-30T01:12:21.995Z,1.08
2022-07-30T01:14:49.777Z,1.30
2022-07-30T01:17:17.196Z,1.23
2022-07-30T01:19:49.377Z,1.30
2022-07-30T01:22:30.464Z,1.45
2022-07-30T01:25:04.442Z,1.52
2022-07-30T01:27:33.724Z,1.33
2022-07-30T01:30:02.739Z,1.60
2022-07-30T01:32:31.932Z,1.17
2022-07-30T01:35:00.396Z,1.48
2022-07-30T01:37:28.742Z,1.13
2022-07-30T01:39:56.671Z,1.42
2022-07-30T01:42:25.296Z,1.15
2022-07-30T01:44:52.710Z,1.30
2022-07-30T01:47:21.230Z,1.30
2022-07-30T01:49:49.630Z,1.38
2022-07-30T01:52:18.761Z,1.13
2022-07-30T01:54:46.986Z,1.48
2022-07-30T01:57:15.063Z,1.30
2022-07-30T01:59:44.563Z,1.25
2022-07-30T02:02:11.985Z,1.38
2022-07-30T02:04:45.310Z,1.30
2022-07-30T02:07:17.541Z,1.50
2022-07-30T02:09:59.038Z,1.67
2022-07-30T02:12:30.202Z,1.60
2022-07-30T02:14:57.583Z,1.45
2022-07-30T02:17:30.444Z,1.38
2022-07-30T02:20:09.997Z,1.40
2022-07-30T02:22:38.997Z,1.70
2022-07-30T02:25:07.654Z,1.50
2022-07-30T02:27:38.266Z,1.40
2022-07-30T02:30:06.549Z,1.33
2022-07-30T02:32:38.414Z,1.45
2022-07-30T02:35:10.561Z,1.75
2022-07-30T02:37:43.729Z,1.45
2022-07-30T02:40:15.041Z,1.45
2022-07-30T02:42:43.459Z,1.60
2022-07-30T02:45:11.503Z,1.60
2022-07-30T02:47:39.342Z,1.38
2022-07-30T02:50:08.121Z,1.50
2022-07-30T02:52:35.939Z,1.60
2022-07-30T02:55:03.844Z,1.88
2022-07-30T02:57:32.482Z,1.42
2022-07-30T03:00:00.610Z,1.60
2022-07-30T03:02:29.484Z,1.60
2022-07-30T03:04:58.723Z,1.58
2022-07-30T03:07:26.343Z,1.65
2022-07-30T03:09:55.659Z,1.48
2022-07-30T03:12:23.957Z,1.45
2022-07-30T03:14:51.943Z,1.48
2022-07-30T03:17:20.362Z,2.10
2022-07-30T03:19:49.538Z,1.60
2022-07-30T03:22:18.813Z,1.50
2022-07-30T03:24:47.519Z,1.73
2022-07-30T03:27:15.198Z,1.40
2022-07-30T03:29:43.023Z,1.35
2022-07-30T03:32:13.575Z,1.40
2022-07-30T03:34:42.364Z,1.50
2022-07-30T03:37:11.684Z,1.58
2022-07-30T03:39:39.522Z,1.80
2022-07-30T03:42:08.102Z,1.60
2022-07-30T03:44:35.865Z,1.63
2022-07-30T03:47:04.011Z,1.40
2022-07-30T03:49:33.012Z,1.90
2022-07-30T03:52:00.813Z,1.50
2022-07-30T03:54:28.373Z,1.38
2022-07-30T03:56:55.758Z,1.60
2022-07-30T03:59:23.155Z,1.80
2022-07-30T04:01:50.807Z,1.65
2022-07-30T04:04:18.264Z,1.50
2022-07-30T04:06:45.675Z,1.70
2022-07-30T04:09:16.618Z,1.50
2022-07-30T04:11:43.997Z,1.40
2022-07-30T04:14:11.579Z,1.70
2022-07-30T04:16:43.649Z,1.83
2022-07-30T04:19:29.272Z,1.60
2022-07-30T04:21:57.802Z,1.73
2022-07-30T04:24:25.993Z,1.52
2022-07-30T04:26:53.613Z,1.88
2022-07-30T04:29:24.465Z,1.50
2022-07-30T04:31:53.723Z,1.63
2022-07-30T04:34:21.120Z,1.63
2022-07-30T04:36:51.837Z,1.40
2022-07-30T04:39:22.379Z,1.75
2022-07-30T04:41:50.235Z,1.70
2022-07-30T04:44:20.957Z,1.90
2022-07-30T04:46:48.638Z,1.90
2022-07-30T04:49:17.043Z,1.52
2022-07-30T04:51:45.983Z,1.63
2022-07-30T04:54:15.939Z,1.67
2022-07-30T04:57:00.826Z,1.60
2022-07-30T04:59:28.622Z,1.30
2022-07-30T05:01:58.249Z,1.73
2022-07-30T05:04:26.266Z,1.60
2022-07-30T05:06:54.516Z,1.88
2022-07-30T05:09:22.298Z,1.65
2022-07-30T05:11:53.297Z,1.90
2022-07-30T05:14:21.176Z,1.40
2022-07-30T05:16:48.884Z,1.90
2022-07-30T05:19:16.583Z,1.70
2022-07-30T05:21:44.021Z,1.63
2022-07-30T05:24:14.812Z,1.50
2022-07-30T05:26:42.661Z,1.60
2022-07-30T05:29:19.799Z,1.70
2022-07-30T05:31:47.650Z,1.40
2022-07-30T05:34:15.087Z,1.60
2022-07-30T05:36:44.696Z,1.70
2022-07-30T05:39:12.172Z,1.40
2022-07-30T05:41:39.752Z,1.50
2022-07-30T05:44:07.274Z,1.60
2022-07-30T05:46:34.798Z,1.50
2022-07-30T05:49:02.349Z,1.33
2022-07-30T05:51:29.772Z,1.90
2022-07-30T05:53:57.213Z,1.98
2022-07-30T05:56:24.633Z,1.60
2022-07-30T05:58:52.002Z,1.98
2022-07-30T06:01:19.594Z,2.03
2022-07-30T06:03:47.053Z,2.13
2022-07-30T06:06:14.432Z,1.83
2022-07-30T06:08:41.853Z,1.77
2022-07-30T06:11:09.192Z,1.75
2022-07-30T06:13:36.873Z,2.05
2022-07-30T06:16:04.374Z,1.90
2022-07-30T06:18:31.853Z,2.17
2022-07-30T06:20:59.352Z,2.08
2022-07-30T06:23:26.752Z,1.77
2022-07-30T06:25:54.153Z,1.70
2022-07-30T06:28:37.213Z,1.90
2022-07-30T06:31:05.465Z,2.30
2022-07-30T06:33:32.930Z,2.80
2022-07-30T06:36:00.339Z,2.22
2022-07-30T06:38:27.713Z,2.50
2022-07-30T06:40:57.175Z,2.65
2022-07-30T06:43:28.165Z,2.70
2022-07-30T06:45:55.763Z,2.90
2022-07-30T06:48:23.167Z,2.58
2022-07-30T06:50:50.581Z,2.60
2022-07-30T06:53:18.194Z,2.42
2022-07-30T06:55:45.664Z,2.65
2022-07-30T06:58:13.155Z,2.65
2022-07-30T07:00:41.248Z,2.58
2022-07-30T07:03:11.620Z,2.53
2022-07-30T07:05:39.448Z,2.60
2022-07-30T07:08:06.806Z,2.55
2022-07-30T07:10:34.246Z,2.60
2022-07-30T07:13:01.621Z,3.22
2022-07-30T07:15:37.398Z,2.80
2022-07-30T07:18:05.920Z,2.33
2022-07-30T07:20:33.966Z,2.78
2022-07-30T07:23:06.533Z,2.60
2022-07-30T07:25:37.050Z,2.20
2022-07-30T07:28:11.659Z,2.70
2022-07-30T07:30:41.426Z,2.40
2022-07-30T07:33:09.206Z,2.80
2022-07-30T07:35:48.468Z,2.40
2022-07-30T07:38:18.101Z,2.28
2022-07-30T07:40:45.800Z,2.53
2022-07-30T07:43:13.599Z,2.83
2022-07-30T07:45:41.711Z,2.45
2022-07-30T07:48:09.200Z,2.47
2022-07-30T07:50:36.699Z,2.78
2022-07-30T07:53:04.241Z,2.28
2022-07-30T07:55:31.726Z,2.50
2022-07-30T07:58:01.165Z,2.70
2022-07-30T08:00:29.076Z,2.70
2022-07-30T08:02:56.567Z,2.97
2022-07-30T08:05:24.129Z,2.78
2022-07-30T08:07:51.507Z,2.28
2022-07-30T08:10:19.212Z,2.97
2022-07-30T08:12:46.648Z,2.35
2022-07-30T08:15:15.467Z,2.70
2022-07-30T08:17:45.127Z,2.60
2022-07-30T08:20:13.187Z,2.50
2022-07-30T08:22:41.327Z,2.63
2022-07-30T08:25:09.167Z,2.53
2022-07-30T08:27:37.067Z,2.45
2022-07-30T08:30:05.728Z,2.22
2022-07-30T08:32:33.248Z,2.30
2022-07-30T08:35:00.668Z,2.22
2022-07-30T08:37:28.487Z,2.45
2022-07-30T08:39:55.856Z,2.70
2022-07-30T08:42:23.887Z,2.47
2022-07-30T08:44:53.887Z,2.13
2022-07-30T08:47:27.407Z,2.47
2022-07-30T08:49:55.910Z,3.85
2022-07-30T08:52:23.670Z,2.40
2022-07-30T08:54:51.167Z,1.92
2022-07-30T08:57:18.670Z,5.05
2022-07-30T08:59:59.486Z,3.50
2022-07-30T09:02:30.896Z,2.55
2022-07-30T09:04:58.398Z,4.40
2022-07-30T09:07:28.850Z,3.40
2022-07-30T09:09:57.831Z,1.85
2022-07-30T09:12:44.486Z,2.30
2022-07-30T09:15:20.315Z,2.38
2022-07-30T09:17:48.749Z,2.42
2022-07-30T09:20:16.637Z,3.00
2022-07-30T09:22:45.408Z,2.33
2022-07-30T09:25:13.069Z,2.15
2022-07-30T09:27:47.543Z,1.80
2022-07-30T09:30:15.192Z,2.50
2022-07-30T09:32:49.889Z,1.92
2022-07-30T09:35:18.211Z,1.92
2022-07-30T09:37:46.363Z,1.70
2022-07-30T09:40:17.871Z,1.83
2022-07-30T09:42:45.665Z,2.40
2022-07-30T09:45:14.371Z,1.70
2022-07-30T09:47:43.954Z,1.77
2022-07-30T09:50:12.409Z,1.80
2022-07-30T09:52:43.823Z,1.83
2022-07-30T09:55:12.502Z,1.90
2022-07-30T09:57:57.806Z,2.00
2022-07-30T10:00:27.263Z,1.90
2022-07-30T10:02:55.050Z,1.70
2022-07-30T10:05:22.783Z,1.85
2022-07-30T10:07:59.472Z,1.55
2022-07-30T10:10:29.731Z,1.80
2022-07-30T10:13:04.442Z,1.77
2022-07-30T10:15:33.442Z,1.50
2022-07-30T10:18:02.866Z,1.80
2022-07-30T10:20:35.331Z,1.60
2022-07-30T10:23:08.090Z,1.65
2022-07-30T10:25:36.692Z,1.60
2022-07-30T10:28:04.631Z,1.50
2022-07-30T10:30:32.511Z,1.63
2022-07-30T10:33:01.599Z,1.60
2022-07-30T10:35:34.830Z,1.50
2022-07-30T10:38:09.099Z,1.40
2022-07-30T10:40:43.019Z,1.38
2022-07-30T10:43:10.412Z,1.20
2022-07-30T10:45:42.546Z,1.35
2022-07-30T10:48:14.091Z,1.38
2022-07-30T10:50:52.370Z,1.35
2022-07-30T10:53:38.239Z,1.23
2022-07-30T10:56:18.271Z,1.20
2022-07-30T10:59:07.821Z,1.20
2022-07-30T11:01:51.725Z,1.40
2022-07-30T11:04:21.113Z,1.40
2022-07-30T11:06:54.010Z,1.10
2022-07-30T11:09:37.301Z,1.10
2022-07-30T11:12:11.191Z,1.10
2022-07-30T11:14:48.953Z,1.13
2022-07-30T11:17:20.391Z,0.90
2022-07-30T11:20:07.232Z,0.90
2022-07-30T11:22:44.927Z,1.08
2022-07-30T11:25:50.295Z,0.95
2022-07-30T11:28:37.070Z,1.23
2022-07-30T11:31:09.988Z,0.80
2022-07-30T11:33:39.103Z,1.20
2022-07-30T11:36:08.312Z,1.00
2022-07-30T11:39:13.737Z,1.08
2022-07-30T11:41:41.112Z,1.08
2022-07-30T11:44:47.003Z,0.80
2022-07-30T11:47:14.752Z,1.08
2022-07-30T11:49:42.191Z,1.10
2022-07-30T11:52:09.659Z,1.00
2022-07-30T11:54:51.817Z,1.15
2022-07-30T11:57:19.238Z,1.10
2022-07-30T11:59:56.178Z,1.10
2022-07-30T12:02:29.532Z,1.13
2022-07-30T12:04:56.982Z,0.90
2022-07-30T12:07:24.716Z,1.00
2022-07-30T12:09:52.106Z,0.95
2022-07-30T12:12:25.847Z,0.70
2022-07-30T12:14:53.266Z,1.02
2022-07-30T12:17:20.667Z,1.00
2022-07-30T12:19:51.546Z,0.85
2022-07-30T12:22:19.877Z,0.90
2022-07-30T12:24:47.283Z,0.90
2022-07-30T12:27:14.706Z,1.02
2022-07-30T12:29:42.166Z,0.88
2022-07-30T12:32:09.648Z,1.00
2022-07-30T12:34:37.079Z,1.10
2022-07-30T12:37:08.596Z,0.70
2022-07-30T12:39:36.097Z,0.90
2022-07-30T12:42:03.935Z,0.70
2022-07-30T12:44:41.789Z,0.95
2022-07-30T12:47:28.826Z,1.10
2022-07-30T12:49:57.638Z,0.77
2022-07-30T12:52:28.527Z,0.80
2022-07-30T12:55:09.731Z,0.95
2022-07-30T12:58:08.849Z,0.70
2022-07-30T13:00:48.266Z,0.90
2022-07-30T13:03:22.628Z,0.90
2022-07-30T13:05:51.035Z,1.10
2022-07-30T13:08:42.707Z,0.80
2022-07-30T13:11:10.095Z,1.10
2022-07-30T13:13:37.457Z,0.82
2022-07-30T13:16:06.139Z,1.10
2022-07-30T13:18:34.334Z,1.00
2022-07-30T13:21:02.122Z,0.68
2022-07-30T13:23:30.062Z,0.85
2022-07-30T13:25:58.475Z,0.85
2022-07-30T13:28:25.834Z,1.05
2022-07-30T13:30:53.438Z,0.80
2022-07-30T13:33:20.954Z,0.70
2022-07-30T13:35:48.394Z,1.00
2022-07-30T13:38:15.974Z,0.98
2022-07-30T13:40:43.434Z,0.88
2022-07-30T13:43:11.116Z,0.90
2022-07-30T13:45:38.644Z,1.00
2022-07-30T13:48:06.134Z,1.27
2022-07-30T13:50:33.875Z,0.80
2022-07-30T13:53:02.445Z,0.93
2022-07-30T13:55:30.141Z,0.90
2022-07-30T13:57:57.770Z,0.70
2022-07-30T14:00:25.291Z,0.73
2022-07-30T14:02:52.817Z,1.00
2022-07-30T14:05:20.195Z,1.13
2022-07-30T14:07:47.587Z,1.08
2022-07-30T14:10:15.869Z,0.90
2022-07-30T14:12:43.288Z,0.90
2022-07-30T14:15:13.833Z,1.10
2022-07-30T14:17:43.564Z,0.70
2022-07-30T14:20:23.756Z,0.90
2022-07-30T14:22:51.536Z,0.65
2022-07-30T14:25:19.318Z,0.70
2022-07-30T14:27:48.241Z,1.02
2022-07-30T14:30:15.631Z,0.82
2022-07-30T14:32:43.157Z,1.00
2022-07-30T14:35:11.057Z,0.68
2022-07-30T14:37:41.697Z,0.80
2022-07-30T14:40:11.618Z,0.93
2022-07-30T14:42:40.239Z,0.90
2022-07-30T14:45:08.450Z,0.90
2022-07-30T14:47:40.490Z,0.60
2022-07-30T14:50:09.845Z,0.80
2022-07-30T14:52:38.825Z,0.80
2022-07-30T14:55:09.669Z,0.80
2022-07-30T14:57:37.457Z,0.73
2022-07-30T15:00:07.453Z,0.80
2022-07-30T15:02:35.404Z,1.00
2022-07-30T15:05:02.854Z,0.70
2022-07-30T15:07:30.446Z,1.00
2022-07-30T15:10:02.946Z,1.20
2022-07-30T15:12:30.388Z,0.85
2022-07-30T15:14:57.794Z,0.85
2022-07-30T15:17:25.219Z,0.98
2022-07-30T15:19:52.935Z,1.10
2022-07-30T15:22:20.842Z,0.90
2022-07-30T15:24:48.911Z,0.80
2022-07-30T15:27:16.714Z,1.00
2022-07-30T15:29:44.625Z,0.70
2022-07-30T15:32:12.094Z,0.80
2022-07-30T15:34:39.542Z,0.80
2022-07-30T15:37:07.029Z,0.80
2022-07-30T15:39:37.867Z,0.95
2022-07-30T15:42:06.562Z,0.88
2022-07-30T15:44:34.188Z,0.93
2022-07-30T15:47:01.660Z,1.05
2022-07-30T15:49:29.331Z,0.90
2022-07-30T15:51:59.480Z,0.80
2022-07-30T15:54:27.616Z,0.80
2022-07-30T15:57:01.347Z,0.82
2022-07-30T15:59:29.517Z,0.70
2022-07-30T16:01:57.117Z,1.17
2022-07-30T16:04:31.468Z,0.90
2022-07-30T16:07:00.367Z,0.85
2022-07-30T16:09:28.000Z,0.95
2022-07-30T16:11:55.376Z,0.95
2022-07-30T16:14:23.263Z,1.05
2022-07-30T16:16:50.942Z,1.00
2022-07-30T16:19:18.362Z,1.10
2022-07-30T16:21:45.762Z,0.80
2022-07-30T16:24:13.163Z,0.80
2022-07-30T16:26:40.542Z,0.80
2022-07-30T16:29:11.968Z,0.90
2022-07-30T16:31:41.233Z,0.70
2022-07-30T16:34:08.673Z,1.13
2022-07-30T16:36:36.113Z,0.80
2022-07-30T16:39:03.594Z,1.00
2022-07-30T16:41:31.051Z,0.75
2022-07-30T16:43:58.472Z,0.80
2022-07-30T16:46:25.931Z,1.10
2022-07-30T16:48:53.370Z,1.17
2022-07-30T16:51:20.871Z,1.00
2022-07-30T16:53:48.891Z,0.80
2022-07-30T16:56:17.392Z,0.70
2022-07-30T16:58:44.832Z,0.90
2022-07-30T17:01:12.511Z,1.10
2022-07-30T17:03:42.680Z,0.88
2022-07-30T17:06:10.193Z,1.00
2022-07-30T17:08:37.662Z,1.00
2022-07-30T17:11:08.778Z,1.00
2022-07-30T17:13:38.174Z,1.10
2022-07-30T17:16:07.216Z,1.40
2022-07-30T17:18:34.656Z,1.05
2022-07-30T17:21:02.035Z,1.00
2022-07-30T17:23:29.412Z,1.00
2022-07-30T17:25:56.833Z,1.25
2022-07-30T17:28:27.268Z,1.52
2022-07-30T17:30:54.865Z,1.10
2022-07-30T17:33:22.333Z,0.80
2022-07-30T17:35:49.853Z,1.00
2022-07-30T17:38:17.315Z,1.15
2022-07-30T17:40:44.737Z,0.70
2022-07-30T17:43:13.994Z,1.80
2022-07-30T17:45:42.186Z,0.88
2022-07-30T17:48:09.723Z,1.08
2022-07-30T17:50:37.235Z,1.08
2022-07-30T17:53:06.055Z,0.90
2022-07-30T17:55:37.234Z,0.95
2022-07-30T17:58:05.065Z,1.42
2022-07-30T18:00:32.535Z,1.00
2022-07-30T18:02:59.984Z,1.13
2022-07-30T18:05:27.431Z,1.20
2022-07-30T18:07:54.792Z,0.80
2022-07-30T18:10:22.188Z,1.05
2022-07-30T18:12:49.782Z,1.10
2022-07-30T18:15:18.096Z,1.13
2022-07-30T18:17:46.220Z,0.90
2022-07-30T18:20:13.920Z,0.90
2022-07-30T18:22:41.421Z,0.82
2022-07-30T18:25:18.857Z,0.90
2022-07-30T18:27:47.343Z,0.90
2022-07-30T18:30:14.936Z,1.02
2022-07-30T18:32:42.472Z,0.73
2022-07-30T18:35:14.102Z,1.42
2022-07-30T18:37:42.993Z,1.08
2022-07-30T18:40:11.265Z,0.93
2022-07-30T18:42:38.681Z,1.30
2022-07-30T18:45:06.455Z,0.85
2022-07-30T18:47:33.895Z,0.90
2022-07-30T18:50:01.495Z,1.08
2022-07-30T18:52:28.936Z,1.60
2022-07-30T18:54:56.703Z,1.10
2022-07-30T18:57:24.075Z,1.00
2022-07-30T18:59:51.663Z,0.88
2022-07-30T19:02:19.182Z,1.00
2022-07-30T19:04:46.704Z,0.95
2022-07-30T19:07:14.125Z,1.20
2022-07-30T19:09:43.045Z,0.95
2022-07-30T19:12:10.466Z,1.00
2022-07-30T19:14:37.906Z,1.10
2022-07-30T19:17:13.632Z,0.70
2022-07-30T19:19:44.965Z,1.00
2022-07-30T19:22:12.432Z,0.90
2022-07-30T19:24:39.970Z,1.15
2022-07-30T19:27:11.015Z,1.13
2022-07-30T19:29:42.125Z,0.90
2022-07-30T19:32:09.506Z,1.10
2022-07-30T19:34:36.926Z,1.13
2022-07-30T19:37:04.485Z,0.90
2022-07-30T19:39:31.946Z,1.33
2022-07-30T19:42:02.543Z,0.93
2022-07-30T19:44:31.564Z,1.27
2022-07-30T19:46:59.968Z,0.75
2022-07-30T19:49:29.516Z,0.90
2022-07-30T19:52:10.962Z,1.00
2022-07-30T19:54:45.323Z,0.90
2022-07-30T19:57:12.904Z,0.98
2022-07-30T19:59:45.555Z,1.00
2022-07-30T20:02:27.452Z,1.00
2022-07-30T20:04:55.024Z,0.98
2022-07-30T20:07:23.284Z,0.90
2022-07-30T20:09:55.345Z,0.88
2022-07-30T20:12:24.256Z,0.95
2022-07-30T20:14:51.806Z,1.20
2022-07-30T20:17:19.283Z,0.80
2022-07-30T20:22:34.143Z,1.05
2022-07-30T20:25:02.705Z,1.00
2022-07-30T20:27:36.307Z,1.10
2022-07-30T20:30:06.577Z,1.15
2022-07-30T20:32:34.796Z,0.90
2022-07-30T20:35:02.435Z,0.75
2022-07-30T20:37:29.835Z,0.93
2022-07-30T20:39:57.517Z,1.00
2022-07-30T20:42:25.305Z,0.90
2022-07-30T20:44:57.103Z,1.30
2022-07-30T20:50:14.374Z,0.90
2022-07-30T20:52:46.645Z,1.20
2022-07-30T20:55:16.856Z,1.00
2022-07-30T20:57:58.781Z,1.00
2022-07-30T21:00:33.436Z,0.80
2022-07-30T21:03:03.207Z,1.20
2022-07-30T21:05:31.463Z,1.10
2022-07-30T21:07:59.644Z,1.00
2022-07-30T21:10:28.116Z,1.10
2022-07-30T21:12:58.731Z,0.90
2022-07-30T21:15:32.980Z,1.00
2022-07-30T21:18:01.659Z,1.02
2022-07-30T21:20:30.177Z,1.10
2022-07-30T21:23:03.675Z,1.13
2022-07-30T21:25:33.089Z,1.08
2022-07-30T21:28:02.611Z,1.10
2022-07-30T21:30:30.783Z,1.10
2022-07-30T21:32:58.160Z,0.95
2022-07-30T21:35:32.155Z,0.90
2022-07-30T21:37:59.896Z,1.20
2022-07-30T21:40:27.829Z,1.10
2022-07-30T21:42:56.593Z,1.00
2022-07-30T21:45:27.020Z,1.20
2022-07-30T21:48:10.906Z,1.38
2022-07-30T21:50:38.437Z,1.00
2022-07-30T21:53:05.843Z,1.00
2022-07-30T21:55:33.385Z,1.60
2022-07-30T21:58:06.595Z,1.30
2022-07-30T22:00:49.503Z,1.20
2022-07-30T22:04:01.180Z,1.33
2022-07-30T22:06:05.295Z,1.40
2022-07-30T22:08:39.872Z,1.10
2022-07-30T22:11:09.176Z,1.13
2022-07-30T22:13:51.315Z,1.40
2022-07-30T22:16:24.315Z,0.85
2022-07-30T22:18:51.815Z,1.20
2022-07-30T22:21:19.676Z,1.00
2022-07-30T22:23:56.752Z,1.05
2022-07-30T22:26:27.495Z,0.98
2022-07-30T22:28:54.959Z,0.90
2022-07-30T22:31:22.393Z,0.90
2022-07-30T22:33:51.046Z,1.00
2022-07-30T22:36:25.351Z,1.10
2022-07-30T22:38:58.704Z,1.00
2022-07-30T22:41:29.063Z,0.90
2022-07-30T22:43:56.606Z,1.20
2022-07-30T22:46:30.537Z,1.23
2022-07-30T22:48:59.284Z,1.50
2022-07-30T22:52:01.261Z,1.30
2022-07-30T22:54:14.926Z,1.10
2022-07-30T22:56:46.109Z,1.10
2022-07-30T22:59:13.828Z,0.98
2022-07-30T23:01:43.481Z,1.30
2022-07-30T23:04:10.988Z,1.02
2022-07-30T23:06:41.855Z,1.20
2022-07-30T23:09:10.131Z,1.10
2022-07-30T23:11:38.977Z,1.10
2022-07-30T23:12:17.497Z,0.90
2022-07-30T23:12:19.012Z,1.10
2022-07-30T23:14:07.217Z,1.20
2022-07-30T23:16:34.618Z,1.13
2022-07-30T23:19:02.417Z,1.33
2022-07-30T23:21:29.796Z,1.30
2022-07-30T23:23:57.196Z,1.20
2022-07-30T23:26:24.598Z,1.45
2022-07-30T23:28:52.038Z,1.25
2022-07-30T23:31:21.923Z,1.40
2022-07-30T23:33:51.396Z,1.10
2022-07-30T23:36:18.856Z,1.10
2022-07-30T23:38:46.356Z,1.02
2022-07-30T23:41:14.016Z,1.48
2022-07-30T23:43:57.355Z,1.00
2022-07-30T23:46:24.775Z,1.20
2022-07-30T23:48:53.192Z,1.10
2022-07-30T23:51:20.636Z,1.35
2022-07-30T23:53:48.076Z,1.20
2022-07-30T23:56:15.958Z,1.20
2022-07-30T23:58:45.955Z,1.30
